Stevensville, MD

7:59 PM EDT on July 03, 2015 (GMT -0400)
claiborne landing | | Change Station
CLOSE
Current Station
Personal Weather Station
Location: Stevensville, MD
Elevation: 16 ft
Nearby Weather Stations

Elev 16 ft 38.91 °N, 76.35 °W | Updated 5 minutes ago

Overcast
Overcast
76.6 °F
Feels Like 78 °F
N
0.0
Wind Variable Wind from North

Today
High -- | Low -- °F
--% Chance of Precip.
Yesterday
High -- | Low -- °F
Precip. -- in
5:44 AM 8:34 PM
Waning Gibbous, 95% visible
Pressure 29.95 in
Visibility 8.0 miles
Clouds Overcast 9000 ft
Heat Index 78 °F
Dew Point 68 °F
Humidity 76%
Rainfall 0.00 in
Snow Depth Not available.
UV 0 out of 12
Pollen .50 out of 12
Air Quality Not available.
Flu Activity Not available.
METAR KNAK 032354Z AUTO 19005KT 8SM OVC090 24/18 A2994 RMK AO2 SLP140 T02440178 10261 20244 55005

More Conditions Fewer Conditions

Pressure 29.95 in
Visibility 8.0 miles
Clouds Overcast 9000 ft
Heat Index 78 °F
Dew Point 68 °F
Humidity 76%
Rainfall 0.00 in
Snow Depth Not available.
UV 0 out of 12
Pollen .50 out of 12
Air Quality Not available.
Flu Activity Not available.
METAR KNAK 032354Z AUTO 19005KT 8SM OVC090 24/18 A2994 RMK AO2 SLP140 T02440178 10261 20244 55005

More Conditions Fewer Conditions

10-Day Weather Forecast

×

Almanac

Astronomy

Jul. 03, 2015 Rise Set
Actual Time
Civil Twilight
Nautical Twilight
Astronomical Twilight
Moon
Length of Visible Light
Length of Day
Tomorrow will be .
, % of the Moon is Illuminated

Today's Extremes

State Highs State Lows

Community

WunderPhotos

Upload Photos

1,834,823 photos uploaded!

WunderBlogs® & News

Nearby

Air Quality

  Air Quality AQ Index Pollutant
Not available.

Snow Depth

Station Depth Elevation

Earthquake Activity

City Distance Mag. Time & Date
Minimum magnitude displayed is 2.5.

Coastal Water Temperatures

Place Temperature

Stations

Nearby Weather Stations

Station Location Temp. Windchill Dew Point Humidity Wind Precip. Elev Updated Type